sensor_id;sensor_type;location;lat;lon;timestamp;P1;durP1;ratioP1;P2;durP2;ratioP2
8399;SDS011;4237;47.030;15.396;2023-04-30T00:00:02;6.60;;;4.30;;
8399;SDS011;4237;47.030;15.396;2023-04-30T00:02:32;4.90;;;4.40;;
8399;SDS011;4237;47.030;15.396;2023-04-30T00:05:00;5.57;;;4.50;;
8399;SDS011;4237;47.030;15.396;2023-04-30T00:07:28;5.80;;;4.63;;
8399;SDS011;4237;47.030;15.396;2023-04-30T00:09:57;4.70;;;4.20;;
8399;SDS011;4237;47.030;15.396;2023-04-30T00:12:25;5.60;;;4.63;;
8399;SDS011;4237;47.030;15.396;2023-04-30T00:14:53;5.97;;;4.37;;
8399;SDS011;4237;47.030;15.396;2023-04-30T00:17:22;5.00;;;4.30;;
8399;SDS011;4237;47.030;15.396;2023-04-30T00:19:50;6.30;;;4.40;;
8399;SDS011;4237;47.030;15.396;2023-04-30T00:22:18;5.17;;;4.67;;
8399;SDS011;4237;47.030;15.396;2023-04-30T00:24:47;5.97;;;4.70;;
8399;SDS011;4237;47.030;15.396;2023-04-30T00:30:04;4.93;;;4.43;;
8399;SDS011;4237;47.030;15.396;2023-04-30T00:32:32;8.10;;;4.67;;
8399;SDS011;4237;47.030;15.396;2023-04-30T00:35:01;5.53;;;4.90;;
8399;SDS011;4237;47.030;15.396;2023-04-30T00:37:29;9.47;;;4.67;;
8399;SDS011;4237;47.030;15.396;2023-04-30T00:39:58;4.87;;;4.37;;
8399;SDS011;4237;47.030;15.396;2023-04-30T00:42:26;6.17;;;4.20;;
8399;SDS011;4237;47.030;15.396;2023-04-30T00:44:54;5.70;;;4.77;;
8399;SDS011;4237;47.030;15.396;2023-04-30T00:47:22;7.73;;;3.97;;
8399;SDS011;4237;47.030;15.396;2023-04-30T00:49:51;5.83;;;4.10;;
8399;SDS011;4237;47.030;15.396;2023-04-30T00:52:19;4.47;;;4.07;;
8399;SDS011;4237;47.030;15.396;2023-04-30T00:54:47;5.63;;;4.50;;
8399;SDS011;4237;47.030;15.396;2023-04-30T00:57:16;6.50;;;3.93;;
8399;SDS011;4237;47.030;15.396;2023-04-30T00:59:45;5.20;;;4.70;;
8399;SDS011;4237;47.030;15.396;2023-04-30T01:02:13;5.03;;;4.23;;
8399;SDS011;4237;47.030;15.396;2023-04-30T01:04:42;5.67;;;3.90;;
8399;SDS011;4237;47.030;15.396;2023-04-30T01:07:10;4.97;;;3.93;;
8399;SDS011;4237;47.030;15.396;2023-04-30T01:09:38;6.17;;;3.93;;
8399;SDS011;4237;47.030;15.396;2023-04-30T01:17:22;7.27;;;4.60;;
8399;SDS011;4237;47.030;15.396;2023-04-30T01:19:50;4.10;;;3.70;;
8399;SDS011;4237;47.030;15.396;2023-04-30T01:30:22;7.13;;;4.00;;
8399;SDS011;4237;47.030;15.396;2023-04-30T01:32:52;4.20;;;3.80;;
8399;SDS011;4237;47.030;15.396;2023-04-30T01:35:20;4.43;;;3.97;;
8399;SDS011;4237;47.030;15.396;2023-04-30T01:37:54;4.13;;;3.73;;
8399;SDS011;4237;47.030;15.396;2023-04-30T01:40:23;4.03;;;3.63;;
8399;SDS011;4237;47.030;15.396;2023-04-30T01:48:30;5.70;;;3.80;;
8399;SDS011;4237;47.030;15.396;2023-04-30T01:51:07;5.87;;;5.07;;
8399;SDS011;4237;47.030;15.396;2023-04-30T01:53:35;11.67;;;6.37;;
8399;SDS011;4237;47.030;15.396;2023-04-30T01:56:02;12.90;;;6.13;;
8399;SDS011;4237;47.030;15.396;2023-04-30T01:58:31;13.70;;;6.83;;
8399;SDS011;4237;47.030;15.396;2023-04-30T02:01:01;13.53;;;6.43;;
8399;SDS011;4237;47.030;15.396;2023-04-30T02:03:29;16.60;;;6.10;;
8399;SDS011;4237;47.030;15.396;2023-04-30T02:05:57;8.63;;;5.20;;
8399;SDS011;4237;47.030;15.396;2023-04-30T02:08:25;7.17;;;5.50;;
8399;SDS011;4237;47.030;15.396;2023-04-30T02:10:54;7.83;;;5.07;;
8399;SDS011;4237;47.030;15.396;2023-04-30T02:13:22;9.37;;;5.10;;
8399;SDS011;4237;47.030;15.396;2023-04-30T02:15:50;6.33;;;5.03;;
8399;SDS011;4237;47.030;15.396;2023-04-30T02:18:18;6.50;;;4.50;;
8399;SDS011;4237;47.030;15.396;2023-04-30T02:20:47;4.83;;;4.20;;
8399;SDS011;4237;47.030;15.396;2023-04-30T02:23:15;9.73;;;4.83;;
8399;SDS011;4237;47.030;15.396;2023-04-30T02:25:43;7.93;;;5.20;;
8399;SDS011;4237;47.030;15.396;2023-04-30T02:28:11;6.53;;;5.10;;
8399;SDS011;4237;47.030;15.396;2023-04-30T02:30:39;7.87;;;5.23;;
8399;SDS011;4237;47.030;15.396;2023-04-30T02:35:57;11.90;;;6.27;;
8399;SDS011;4237;47.030;15.396;2023-04-30T02:38:25;7.03;;;5.03;;
8399;SDS011;4237;47.030;15.396;2023-04-30T02:40:53;9.33;;;5.37;;
8399;SDS011;4237;47.030;15.396;2023-04-30T02:43:22;9.93;;;5.67;;
8399;SDS011;4237;47.030;15.396;2023-04-30T02:45:50;7.70;;;5.17;;
8399;SDS011;4237;47.030;15.396;2023-04-30T02:48:18;8.70;;;5.23;;
8399;SDS011;4237;47.030;15.396;2023-04-30T02:50:46;6.90;;;5.07;;
8399;SDS011;4237;47.030;15.396;2023-04-30T02:53:14;8.93;;;5.17;;
8399;SDS011;4237;47.030;15.396;2023-04-30T02:55:43;7.10;;;5.23;;
8399;SDS011;4237;47.030;15.396;2023-04-30T02:58:11;5.37;;;4.87;;
8399;SDS011;4237;47.030;15.396;2023-04-30T03:00:39;7.00;;;5.27;;
8399;SDS011;4237;47.030;15.396;2023-04-30T03:03:08;5.77;;;5.17;;
8399;SDS011;4237;47.030;15.396;2023-04-30T03:05:36;7.80;;;5.83;;
8399;SDS011;4237;47.030;15.396;2023-04-30T03:08:04;6.83;;;5.40;;
8399;SDS011;4237;47.030;15.396;2023-04-30T03:10:32;7.30;;;5.43;;
8399;SDS011;4237;47.030;15.396;2023-04-30T03:13:01;6.77;;;5.40;;
8399;SDS011;4237;47.030;15.396;2023-04-30T03:15:31;8.13;;;5.73;;
8399;SDS011;4237;47.030;15.396;2023-04-30T03:17:58;7.43;;;5.63;;
8399;SDS011;4237;47.030;15.396;2023-04-30T03:20:27;9.97;;;5.50;;
8399;SDS011;4237;47.030;15.396;2023-04-30T03:22:55;7.47;;;6.03;;
8399;SDS011;4237;47.030;15.396;2023-04-30T03:25:23;9.20;;;6.07;;
8399;SDS011;4237;47.030;15.396;2023-04-30T03:27:52;6.43;;;5.43;;
8399;SDS011;4237;47.030;15.396;2023-04-30T03:30:20;7.47;;;5.60;;
8399;SDS011;4237;47.030;15.396;2023-04-30T03:32:48;6.30;;;5.20;;
8399;SDS011;4237;47.030;15.396;2023-04-30T03:35:16;8.67;;;5.30;;
8399;SDS011;4237;47.030;15.396;2023-04-30T03:37:45;6.57;;;5.33;;
8399;SDS011;4237;47.030;15.396;2023-04-30T03:40:13;7.60;;;5.03;;
8399;SDS011;4237;47.030;15.396;2023-04-30T03:42:41;6.07;;;5.20;;
8399;SDS011;4237;47.030;15.396;2023-04-30T03:45:10;8.60;;;5.47;;
8399;SDS011;4237;47.030;15.396;2023-04-30T03:47:38;6.33;;;5.07;;
8399;SDS011;4237;47.030;15.396;2023-04-30T03:50:07;5.33;;;4.77;;
8399;SDS011;4237;47.030;15.396;2023-04-30T03:52:35;5.60;;;4.87;;
8399;SDS011;4237;47.030;15.396;2023-04-30T03:55:05;7.20;;;4.70;;
8399;SDS011;4237;47.030;15.396;2023-04-30T03:57:33;6.37;;;4.90;;
8399;SDS011;4237;47.030;15.396;2023-04-30T04:00:01;6.27;;;4.90;;
8399;SDS011;4237;47.030;15.396;2023-04-30T04:02:31;6.43;;;5.10;;
8399;SDS011;4237;47.030;15.396;2023-04-30T04:05:00;8.77;;;4.70;;
8399;SDS011;4237;47.030;15.396;2023-04-30T04:07:29;6.77;;;5.40;;
8399;SDS011;4237;47.030;15.396;2023-04-30T04:09:57;5.43;;;4.80;;
8399;SDS011;4237;47.030;15.396;2023-04-30T04:12:25;4.97;;;4.40;;
8399;SDS011;4237;47.030;15.396;2023-04-30T04:14:53;6.87;;;4.83;;
8399;SDS011;4237;47.030;15.396;2023-04-30T04:17:21;5.60;;;5.00;;
8399;SDS011;4237;47.030;15.396;2023-04-30T04:19:50;6.80;;;4.97;;
8399;SDS011;4237;47.030;15.396;2023-04-30T04:25:05;8.20;;;4.93;;
8399;SDS011;4237;47.030;15.396;2023-04-30T04:27:35;6.07;;;4.63;;
8399;SDS011;4237;47.030;15.396;2023-04-30T04:30:11;7.43;;;5.13;;
8399;SDS011;4237;47.030;15.396;2023-04-30T04:32:40;8.90;;;5.00;;
8399;SDS011;4237;47.030;15.396;2023-04-30T04:35:16;7.23;;;5.13;;
8399;SDS011;4237;47.030;15.396;2023-04-30T04:37:47;5.07;;;4.43;;
8399;SDS011;4237;47.030;15.396;2023-04-30T04:40:15;6.73;;;5.23;;
8399;SDS011;4237;47.030;15.396;2023-04-30T04:42:44;6.77;;;4.90;;
8399;SDS011;4237;47.030;15.396;2023-04-30T04:45:14;6.03;;;4.97;;
8399;SDS011;4237;47.030;15.396;2023-04-30T04:47:43;5.27;;;4.77;;
8399;SDS011;4237;47.030;15.396;2023-04-30T04:50:11;5.77;;;5.20;;
8399;SDS011;4237;47.030;15.396;2023-04-30T04:52:39;6.30;;;5.40;;
8399;SDS011;4237;47.030;15.396;2023-04-30T04:55:08;6.07;;;4.83;;
8399;SDS011;4237;47.030;15.396;2023-04-30T04:57:38;7.57;;;5.50;;
8399;SDS011;4237;47.030;15.396;2023-04-30T05:00:08;7.40;;;4.87;;
8399;SDS011;4237;47.030;15.396;2023-04-30T05:02:38;5.87;;;5.30;;
8399;SDS011;4237;47.030;15.396;2023-04-30T05:05:06;6.07;;;5.47;;
8399;SDS011;4237;47.030;15.396;2023-04-30T05:07:34;6.80;;;5.13;;
8399;SDS011;4237;47.030;15.396;2023-04-30T05:10:04;10.97;;;5.20;;
8399;SDS011;4237;47.030;15.396;2023-04-30T05:12:51;8.03;;;4.63;;
8399;SDS011;4237;47.030;15.396;2023-04-30T05:15:20;7.87;;;4.60;;
8399;SDS011;4237;47.030;15.396;2023-04-30T05:17:48;5.03;;;4.27;;
8399;SDS011;4237;47.030;15.396;2023-04-30T05:20:16;6.47;;;4.30;;
8399;SDS011;4237;47.030;15.396;2023-04-30T05:22:45;5.40;;;4.17;;
8399;SDS011;4237;47.030;15.396;2023-04-30T05:25:13;6.63;;;4.57;;
8399;SDS011;4237;47.030;15.396;2023-04-30T05:28:02;9.03;;;6.03;;
8399;SDS011;4237;47.030;15.396;2023-04-30T05:30:31;7.63;;;5.67;;
8399;SDS011;4237;47.030;15.396;2023-04-30T05:32:59;7.40;;;5.20;;
8399;SDS011;4237;47.030;15.396;2023-04-30T05:35:27;6.87;;;4.43;;
8399;SDS011;4237;47.030;15.396;2023-04-30T05:37:56;6.50;;;4.07;;
8399;SDS011;4237;47.030;15.396;2023-04-30T05:40:24;5.87;;;4.20;;
8399;SDS011;4237;47.030;15.396;2023-04-30T05:42:53;4.33;;;3.57;;
8399;SDS011;4237;47.030;15.396;2023-04-30T05:45:21;5.33;;;4.30;;
8399;SDS011;4237;47.030;15.396;2023-04-30T05:47:49;5.50;;;3.90;;
8399;SDS011;4237;47.030;15.396;2023-04-30T05:50:17;4.70;;;3.57;;
8399;SDS011;4237;47.030;15.396;2023-04-30T05:52:45;5.30;;;3.53;;
8399;SDS011;4237;47.030;15.396;2023-04-30T05:55:13;4.60;;;3.50;;
8399;SDS011;4237;47.030;15.396;2023-04-30T06:00:29;5.37;;;3.80;;
8399;SDS011;4237;47.030;15.396;2023-04-30T06:02:57;5.33;;;3.70;;
8399;SDS011;4237;47.030;15.396;2023-04-30T06:05:26;4.67;;;3.53;;
8399;SDS011;4237;47.030;15.396;2023-04-30T06:07:54;11.37;;;3.60;;
8399;SDS011;4237;47.030;15.396;2023-04-30T06:10:22;5.50;;;3.90;;
8399;SDS011;4237;47.030;15.396;2023-04-30T06:12:50;5.83;;;3.97;;
8399;SDS011;4237;47.030;15.396;2023-04-30T06:15:19;5.67;;;3.27;;
8399;SDS011;4237;47.030;15.396;2023-04-30T06:17:47;5.60;;;3.50;;
8399;SDS011;4237;47.030;15.396;2023-04-30T06:20:15;4.10;;;3.37;;
8399;SDS011;4237;47.030;15.396;2023-04-30T06:22:43;3.90;;;3.00;;
8399;SDS011;4237;47.030;15.396;2023-04-30T06:25:11;3.30;;;2.87;;
8399;SDS011;4237;47.030;15.396;2023-04-30T06:27:40;5.53;;;2.93;;
8399;SDS011;4237;47.030;15.396;2023-04-30T06:30:08;3.90;;;3.50;;
8399;SDS011;4237;47.030;15.396;2023-04-30T06:32:36;3.80;;;2.90;;
8399;SDS011;4237;47.030;15.396;2023-04-30T06:35:05;3.23;;;2.93;;
8399;SDS011;4237;47.030;15.396;2023-04-30T06:37:33;3.37;;;2.50;;
8399;SDS011;4237;47.030;15.396;2023-04-30T06:40:03;3.00;;;2.70;;
8399;SDS011;4237;47.030;15.396;2023-04-30T06:42:32;3.27;;;2.60;;
8399;SDS011;4237;47.030;15.396;2023-04-30T06:45:01;2.60;;;2.40;;
8399;SDS011;4237;47.030;15.396;2023-04-30T06:47:30;3.00;;;2.70;;
8399;SDS011;4237;47.030;15.396;2023-04-30T06:50:02;2.77;;;2.20;;
8399;SDS011;4237;47.030;15.396;2023-04-30T06:52:31;4.03;;;2.37;;
8399;SDS011;4237;47.030;15.396;2023-04-30T06:54:59;3.20;;;2.60;;
8399;SDS011;4237;47.030;15.396;2023-04-30T06:57:28;2.83;;;2.53;;
8399;SDS011;4237;47.030;15.396;2023-04-30T06:59:57;2.73;;;2.23;;
8399;SDS011;4237;47.030;15.396;2023-04-30T07:02:26;2.60;;;2.40;;
8399;SDS011;4237;47.030;15.396;2023-04-30T07:04:54;3.20;;;2.60;;
8399;SDS011;4237;47.030;15.396;2023-04-30T07:07:22;5.50;;;2.70;;
8399;SDS011;4237;47.030;15.396;2023-04-30T07:09:50;3.63;;;2.63;;
8399;SDS011;4237;47.030;15.396;2023-04-30T07:12:19;4.37;;;2.83;;
8399;SDS011;4237;47.030;15.396;2023-04-30T07:14:48;3.83;;;3.07;;
8399;SDS011;4237;47.030;15.396;2023-04-30T07:20:04;6.67;;;2.80;;
8399;SDS011;4237;47.030;15.396;2023-04-30T07:22:33;3.77;;;2.60;;
8399;SDS011;4237;47.030;15.396;2023-04-30T07:25:02;3.60;;;2.90;;
8399;SDS011;4237;47.030;15.396;2023-04-30T07:27:30;2.97;;;2.70;;
8399;SDS011;4237;47.030;15.396;2023-04-30T07:29:58;7.40;;;3.30;;
8399;SDS011;4237;47.030;15.396;2023-04-30T07:32:26;3.73;;;2.80;;
8399;SDS011;4237;47.030;15.396;2023-04-30T07:34:54;4.00;;;2.80;;
8399;SDS011;4237;47.030;15.396;2023-04-30T07:37:23;2.83;;;2.50;;
8399;SDS011;4237;47.030;15.396;2023-04-30T07:39:51;3.47;;;2.60;;
8399;SDS011;4237;47.030;15.396;2023-04-30T07:42:19;4.50;;;2.80;;
8399;SDS011;4237;47.030;15.396;2023-04-30T07:44:48;3.43;;;2.50;;
8399;SDS011;4237;47.030;15.396;2023-04-30T07:47:16;4.00;;;2.50;;
8399;SDS011;4237;47.030;15.396;2023-04-30T07:49:47;3.20;;;2.23;;
8399;SDS011;4237;47.030;15.396;2023-04-30T07:52:16;2.93;;;2.70;;
8399;SDS011;4237;47.030;15.396;2023-04-30T07:54:44;4.33;;;2.50;;
8399;SDS011;4237;47.030;15.396;2023-04-30T07:57:12;3.90;;;2.33;;
8399;SDS011;4237;47.030;15.396;2023-04-30T07:59:40;3.40;;;3.10;;
8399;SDS011;4237;47.030;15.396;2023-04-30T08:02:09;3.60;;;3.30;;
8399;SDS011;4237;47.030;15.396;2023-04-30T08:04:37;5.23;;;3.17;;
8399;SDS011;4237;47.030;15.396;2023-04-30T08:07:05;4.20;;;3.27;;
8399;SDS011;4237;47.030;15.396;2023-04-30T08:09:34;5.27;;;3.10;;
8399;SDS011;4237;47.030;15.396;2023-04-30T08:12:02;2.63;;;2.43;;
8399;SDS011;4237;47.030;15.396;2023-04-30T08:14:31;3.27;;;2.90;;
8399;SDS011;4237;47.030;15.396;2023-04-30T08:17:00;2.73;;;2.37;;
8399;SDS011;4237;47.030;15.396;2023-04-30T08:19:29;2.77;;;2.57;;
8399;SDS011;4237;47.030;15.396;2023-04-30T08:21:58;2.93;;;2.30;;
8399;SDS011;4237;47.030;15.396;2023-04-30T08:24:27;3.27;;;2.97;;
8399;SDS011;4237;47.030;15.396;2023-04-30T08:26:55;3.50;;;3.20;;
8399;SDS011;4237;47.030;15.396;2023-04-30T08:29:24;2.97;;;2.60;;
8399;SDS011;4237;47.030;15.396;2023-04-30T08:31:52;3.27;;;3.07;;
8399;SDS011;4237;47.030;15.396;2023-04-30T08:34:20;3.43;;;3.10;;
8399;SDS011;4237;47.030;15.396;2023-04-30T08:36:48;4.27;;;3.13;;
8399;SDS011;4237;47.030;15.396;2023-04-30T08:39:17;4.50;;;3.60;;
8399;SDS011;4237;47.030;15.396;2023-04-30T08:41:45;3.53;;;3.23;;
8399;SDS011;4237;47.030;15.396;2023-04-30T08:44:14;4.20;;;3.07;;
8399;SDS011;4237;47.030;15.396;2023-04-30T08:46:42;4.53;;;3.20;;
8399;SDS011;4237;47.030;15.396;2023-04-30T08:49:10;3.50;;;3.20;;
8399;SDS011;4237;47.030;15.396;2023-04-30T08:51:39;4.07;;;3.10;;
8399;SDS011;4237;47.030;15.396;2023-04-30T08:54:09;3.43;;;3.10;;
8399;SDS011;4237;47.030;15.396;2023-04-30T08:56:37;3.90;;;3.03;;
8399;SDS011;4237;47.030;15.396;2023-04-30T08:59:05;3.20;;;2.90;;
8399;SDS011;4237;47.030;15.396;2023-04-30T09:01:34;2.90;;;2.60;;
8399;SDS011;4237;47.030;15.396;2023-04-30T09:04:02;8.70;;;2.87;;
8399;SDS011;4237;47.030;15.396;2023-04-30T09:06:31;3.70;;;2.97;;
8399;SDS011;4237;47.030;15.396;2023-04-30T09:09:07;3.40;;;3.10;;
8399;SDS011;4237;47.030;15.396;2023-04-30T09:11:29;3.43;;;3.10;;
8399;SDS011;4237;47.030;15.396;2023-04-30T09:13:58;4.93;;;3.53;;
8399;SDS011;4237;47.030;15.396;2023-04-30T09:16:28;5.13;;;3.27;;
8399;SDS011;4237;47.030;15.396;2023-04-30T09:18:58;3.10;;;2.90;;
8399;SDS011;4237;47.030;15.396;2023-04-30T09:21:33;3.47;;;3.20;;
8399;SDS011;4237;47.030;15.396;2023-04-30T09:24:02;3.40;;;3.20;;
8399;SDS011;4237;47.030;15.396;2023-04-30T09:26:32;3.47;;;3.17;;
8399;SDS011;4237;47.030;15.396;2023-04-30T09:29:01;3.40;;;3.10;;
8399;SDS011;4237;47.030;15.396;2023-04-30T09:31:31;3.50;;;3.20;;
8399;SDS011;4237;47.030;15.396;2023-04-30T09:34:00;4.73;;;2.87;;
8399;SDS011;4237;47.030;15.396;2023-04-30T09:36:28;3.40;;;3.00;;
8399;SDS011;4237;47.030;15.396;2023-04-30T09:39:11;3.00;;;2.70;;
8399;SDS011;4237;47.030;15.396;2023-04-30T09:41:40;3.77;;;3.47;;
8399;SDS011;4237;47.030;15.396;2023-04-30T09:46:57;3.00;;;2.80;;
8399;SDS011;4237;47.030;15.396;2023-04-30T09:49:26;4.20;;;3.10;;
8399;SDS011;4237;47.030;15.396;2023-04-30T09:51:58;4.60;;;3.10;;
8399;SDS011;4237;47.030;15.396;2023-04-30T09:54:30;3.80;;;3.20;;
8399;SDS011;4237;47.030;15.396;2023-04-30T09:56:59;3.10;;;2.80;;
8399;SDS011;4237;47.030;15.396;2023-04-30T09:59:32;3.13;;;2.93;;
8399;SDS011;4237;47.030;15.396;2023-04-30T10:02:02;3.37;;;2.63;;
8399;SDS011;4237;47.030;15.396;2023-04-30T10:04:35;3.80;;;2.63;;
8399;SDS011;4237;47.030;15.396;2023-04-30T10:07:14;3.77;;;2.80;;
8399;SDS011;4237;47.030;15.396;2023-04-30T10:09:50;3.20;;;2.93;;
8399;SDS011;4237;47.030;15.396;2023-04-30T10:13:04;3.30;;;3.03;;
8399;SDS011;4237;47.030;15.396;2023-04-30T10:14:53;3.43;;;3.13;;
8399;SDS011;4237;47.030;15.396;2023-04-30T10:17:21;5.10;;;3.00;;
8399;SDS011;4237;47.030;15.396;2023-04-30T10:19:51;3.67;;;3.37;;
8399;SDS011;4237;47.030;15.396;2023-04-30T10:22:20;3.13;;;2.87;;
8399;SDS011;4237;47.030;15.396;2023-04-30T10:24:48;4.67;;;3.10;;
8399;SDS011;4237;47.030;15.396;2023-04-30T10:27:17;3.93;;;3.50;;
8399;SDS011;4237;47.030;15.396;2023-04-30T10:29:46;3.20;;;2.90;;
8399;SDS011;4237;47.030;15.396;2023-04-30T10:32:14;2.83;;;2.60;;
8399;SDS011;4237;47.030;15.396;2023-04-30T10:34:51;2.90;;;2.70;;
8399;SDS011;4237;47.030;15.396;2023-04-30T10:37:20;3.53;;;3.30;;
8399;SDS011;4237;47.030;15.396;2023-04-30T10:39:49;3.33;;;3.03;;
8399;SDS011;4237;47.030;15.396;2023-04-30T10:42:18;4.97;;;3.07;;
8399;SDS011;4237;47.030;15.396;2023-04-30T10:44:46;3.40;;;3.10;;
8399;SDS011;4237;47.030;15.396;2023-04-30T10:47:15;6.90;;;4.47;;
8399;SDS011;4237;47.030;15.396;2023-04-30T10:49:45;3.67;;;3.37;;
8399;SDS011;4237;47.030;15.396;2023-04-30T10:52:25;4.30;;;3.37;;
8399;SDS011;4237;47.030;15.396;2023-04-30T10:54:48;4.20;;;3.77;;
8399;SDS011;4237;47.030;15.396;2023-04-30T10:57:16;3.60;;;2.93;;
8399;SDS011;4237;47.030;15.396;2023-04-30T11:02:19;4.67;;;2.90;;
8399;SDS011;4237;47.030;15.396;2023-04-30T11:07:35;2.87;;;2.50;;
8399;SDS011;4237;47.030;15.396;2023-04-30T11:10:06;3.00;;;2.70;;
8399;SDS011;4237;47.030;15.396;2023-04-30T11:12:36;2.67;;;2.33;;
8399;SDS011;4237;47.030;15.396;2023-04-30T11:15:06;3.07;;;2.77;;
8399;SDS011;4237;47.030;15.396;2023-04-30T11:17:35;3.20;;;2.90;;
8399;SDS011;4237;47.030;15.396;2023-04-30T11:20:20;3.10;;;2.80;;
8399;SDS011;4237;47.030;15.396;2023-04-30T11:25:39;3.23;;;2.93;;
8399;SDS011;4237;47.030;15.396;2023-04-30T11:28:12;2.87;;;2.60;;
8399;SDS011;4237;47.030;15.396;2023-04-30T11:30:38;3.30;;;3.00;;
8399;SDS011;4237;47.030;15.396;2023-04-30T11:33:07;3.37;;;3.00;;
8399;SDS011;4237;47.030;15.396;2023-04-30T11:35:36;3.77;;;2.90;;
8399;SDS011;4237;47.030;15.396;2023-04-30T11:38:04;3.30;;;3.07;;
8399;SDS011;4237;47.030;15.396;2023-04-30T11:40:34;3.93;;;2.80;;
8399;SDS011;4237;47.030;15.396;2023-04-30T11:43:03;5.17;;;2.67;;
8399;SDS011;4237;47.030;15.396;2023-04-30T11:45:31;4.17;;;3.10;;
8399;SDS011;4237;47.030;15.396;2023-04-30T11:47:59;3.63;;;3.13;;
8399;SDS011;4237;47.030;15.396;2023-04-30T11:50:31;6.67;;;2.90;;
8399;SDS011;4237;47.030;15.396;2023-04-30T11:52:57;3.03;;;2.73;;
8399;SDS011;4237;47.030;15.396;2023-04-30T11:55:28;3.00;;;2.80;;
8399;SDS011;4237;47.030;15.396;2023-04-30T11:57:56;2.60;;;2.40;;
8399;SDS011;4237;47.030;15.396;2023-04-30T12:00:26;3.43;;;2.63;;
8399;SDS011;4237;47.030;15.396;2023-04-30T12:02:55;23.43;;;3.90;;
8399;SDS011;4237;47.030;15.396;2023-04-30T12:05:24;19.93;;;3.20;;
8399;SDS011;4237;47.030;15.396;2023-04-30T12:07:58;16.27;;;2.70;;
8399;SDS011;4237;47.030;15.396;2023-04-30T12:10:26;2.53;;;2.33;;
8399;SDS011;4237;47.030;15.396;2023-04-30T12:12:54;2.90;;;2.50;;
8399;SDS011;4237;47.030;15.396;2023-04-30T12:15:23;2.97;;;2.30;;
8399;SDS011;4237;47.030;15.396;2023-04-30T12:17:56;2.67;;;2.40;;
8399;SDS011;4237;47.030;15.396;2023-04-30T12:20:26;3.30;;;2.70;;
8399;SDS011;4237;47.030;15.396;2023-04-30T12:22:54;5.43;;;2.70;;
8399;SDS011;4237;47.030;15.396;2023-04-30T12:25:23;3.00;;;2.80;;
8399;SDS011;4237;47.030;15.396;2023-04-30T12:27:51;3.60;;;2.90;;
8399;SDS011;4237;47.030;15.396;2023-04-30T12:30:20;3.40;;;3.10;;
8399;SDS011;4237;47.030;15.396;2023-04-30T12:32:49;2.80;;;2.60;;
8399;SDS011;4237;47.030;15.396;2023-04-30T12:35:19;5.27;;;2.40;;
8399;SDS011;4237;47.030;15.396;2023-04-30T12:37:49;3.43;;;2.43;;
8399;SDS011;4237;47.030;15.396;2023-04-30T12:40:18;3.83;;;2.20;;
8399;SDS011;4237;47.030;15.396;2023-04-30T12:42:47;8.20;;;2.77;;
8399;SDS011;4237;47.030;15.396;2023-04-30T12:48:02;3.43;;;2.33;;
8399;SDS011;4237;47.030;15.396;2023-04-30T12:50:30;3.73;;;2.10;;
8399;SDS011;4237;47.030;15.396;2023-04-30T12:53:02;2.67;;;2.37;;
8399;SDS011;4237;47.030;15.396;2023-04-30T12:55:31;4.23;;;2.63;;
8399;SDS011;4237;47.030;15.396;2023-04-30T12:58:04;3.27;;;2.73;;
8399;SDS011;4237;47.030;15.396;2023-04-30T13:00:43;3.37;;;2.63;;
8399;SDS011;4237;47.030;15.396;2023-04-30T13:03:12;5.07;;;2.60;;
8399;SDS011;4237;47.030;15.396;2023-04-30T13:05:42;3.87;;;2.43;;
8399;SDS011;4237;47.030;15.396;2023-04-30T13:08:12;2.70;;;2.20;;
8399;SDS011;4237;47.030;15.396;2023-04-30T13:10:40;3.10;;;2.40;;
8399;SDS011;4237;47.030;15.396;2023-04-30T13:13:09;3.23;;;2.70;;
8399;SDS011;4237;47.030;15.396;2023-04-30T13:15:37;3.70;;;2.90;;
8399;SDS011;4237;47.030;15.396;2023-04-30T13:18:07;2.60;;;2.40;;
8399;SDS011;4237;47.030;15.396;2023-04-30T13:20:35;3.30;;;3.00;;
8399;SDS011;4237;47.030;15.396;2023-04-30T13:23:09;3.20;;;2.90;;
8399;SDS011;4237;47.030;15.396;2023-04-30T13:25:33;3.73;;;2.80;;
8399;SDS011;4237;47.030;15.396;2023-04-30T13:28:02;3.83;;;2.50;;
8399;SDS011;4237;47.030;15.396;2023-04-30T13:30:31;3.13;;;2.40;;
8399;SDS011;4237;47.030;15.396;2023-04-30T13:33:00;2.07;;;1.93;;
8399;SDS011;4237;47.030;15.396;2023-04-30T13:35:28;3.23;;;2.60;;
8399;SDS011;4237;47.030;15.396;2023-04-30T13:37:59;2.83;;;2.45;;
8399;SDS011;4237;47.030;15.396;2023-04-30T13:40:28;3.20;;;2.42;;
8399;SDS011;4237;47.030;15.396;2023-04-30T13:42:56;3.90;;;2.12;;
8399;SDS011;4237;47.030;15.396;2023-04-30T13:45:24;2.67;;;2.47;;
8399;SDS011;4237;47.030;15.396;2023-04-30T13:47:53;3.33;;;2.50;;
8399;SDS011;4237;47.030;15.396;2023-04-30T13:50:21;2.80;;;2.37;;
8399;SDS011;4237;47.030;15.396;2023-04-30T13:52:50;4.20;;;2.27;;
8399;SDS011;4237;47.030;15.396;2023-04-30T13:55:18;2.93;;;2.33;;
8399;SDS011;4237;47.030;15.396;2023-04-30T13:57:46;3.43;;;2.17;;
8399;SDS011;4237;47.030;15.396;2023-04-30T14:00:15;3.43;;;2.03;;
8399;SDS011;4237;47.030;15.396;2023-04-30T14:02:43;3.27;;;2.00;;
8399;SDS011;4237;47.030;15.396;2023-04-30T14:05:11;3.30;;;2.23;;
8399;SDS011;4237;47.030;15.396;2023-04-30T14:07:40;2.12;;;1.82;;
8399;SDS011;4237;47.030;15.396;2023-04-30T14:10:09;3.60;;;2.05;;
8399;SDS011;4237;47.030;15.396;2023-04-30T14:12:38;2.20;;;2.00;;
8399;SDS011;4237;47.030;15.396;2023-04-30T14:15:07;2.62;;;2.37;;
8399;SDS011;4237;47.030;15.396;2023-04-30T14:17:35;2.70;;;2.50;;
8399;SDS011;4237;47.030;15.396;2023-04-30T14:20:04;3.17;;;2.30;;
8399;SDS011;4237;47.030;15.396;2023-04-30T14:22:32;6.23;;;2.77;;
8399;SDS011;4237;47.030;15.396;2023-04-30T14:25:02;14.58;;;2.50;;
8399;SDS011;4237;47.030;15.396;2023-04-30T14:27:30;3.77;;;1.87;;
8399;SDS011;4237;47.030;15.396;2023-04-30T14:29:59;2.10;;;1.90;;
8399;SDS011;4237;47.030;15.396;2023-04-30T14:32:27;2.37;;;1.70;;
8399;SDS011;4237;47.030;15.396;2023-04-30T14:34:55;2.12;;;2.00;;
8399;SDS011;4237;47.030;15.396;2023-04-30T14:37:23;2.02;;;1.80;;
8399;SDS011;4237;47.030;15.396;2023-04-30T14:39:52;2.17;;;1.98;;
8399;SDS011;4237;47.030;15.396;2023-04-30T14:42:20;3.42;;;1.80;;
8399;SDS011;4237;47.030;15.396;2023-04-30T14:44:48;1.60;;;1.50;;
8399;SDS011;4237;47.030;15.396;2023-04-30T14:47:17;2.33;;;2.12;;
8399;SDS011;4237;47.030;15.396;2023-04-30T14:49:47;2.02;;;1.82;;
8399;SDS011;4237;47.030;15.396;2023-04-30T14:52:17;2.40;;;1.85;;
8399;SDS011;4237;47.030;15.396;2023-04-30T14:54:46;3.67;;;1.87;;
8399;SDS011;4237;47.030;15.396;2023-04-30T14:57:16;2.03;;;1.83;;
8399;SDS011;4237;47.030;15.396;2023-04-30T14:59:45;1.77;;;1.67;;
8399;SDS011;4237;47.030;15.396;2023-04-30T15:02:13;2.03;;;1.80;;
8399;SDS011;4237;47.030;15.396;2023-04-30T15:04:42;2.30;;;2.10;;
8399;SDS011;4237;47.030;15.396;2023-04-30T15:07:12;2.17;;;1.77;;
8399;SDS011;4237;47.030;15.396;2023-04-30T15:09:40;1.93;;;1.80;;
8399;SDS011;4237;47.030;15.396;2023-04-30T15:12:10;2.87;;;1.93;;
8399;SDS011;4237;47.030;15.396;2023-04-30T15:14:38;7.70;;;2.10;;
8399;SDS011;4237;47.030;15.396;2023-04-30T15:17:07;1.70;;;1.60;;
8399;SDS011;4237;47.030;15.396;2023-04-30T15:19:37;2.00;;;1.83;;
8399;SDS011;4237;47.030;15.396;2023-04-30T15:22:05;6.63;;;2.10;;
8399;SDS011;4237;47.030;15.396;2023-04-30T15:24:34;2.80;;;1.90;;
8399;SDS011;4237;47.030;15.396;2023-04-30T15:27:02;2.10;;;2.00;;
8399;SDS011;4237;47.030;15.396;2023-04-30T15:29:30;2.37;;;2.07;;
8399;SDS011;4237;47.030;15.396;2023-04-30T15:31:59;1.80;;;1.70;;
8399;SDS011;4237;47.030;15.396;2023-04-30T15:34:28;2.00;;;1.90;;
8399;SDS011;4237;47.030;15.396;2023-04-30T15:36:56;2.03;;;1.83;;
8399;SDS011;4237;47.030;15.396;2023-04-30T15:39:25;2.10;;;2.00;;
8399;SDS011;4237;47.030;15.396;2023-04-30T15:41:53;2.50;;;2.30;;
8399;SDS011;4237;47.030;15.396;2023-04-30T15:44:21;2.50;;;2.30;;
8399;SDS011;4237;47.030;15.396;2023-04-30T15:46:50;2.57;;;1.90;;
8399;SDS011;4237;47.030;15.396;2023-04-30T15:49:18;3.23;;;2.10;;
8399;SDS011;4237;47.030;15.396;2023-04-30T15:51:47;3.57;;;2.20;;
8399;SDS011;4237;47.030;15.396;2023-04-30T15:54:16;3.00;;;2.57;;
8399;SDS011;4237;47.030;15.396;2023-04-30T15:56:44;2.60;;;2.40;;